Time;durP1;ratioP1;P1;durP2;ratioP2;P2;SDS_P1;SDS_P2;PMS_P1;PMS_P2;Temp;Humidity;BMP_temperature;BMP_pressure;BME280_temperature;BME280_humidity;BME280_pressure;Samples;Min_cycle;Max_cycle;Signal;HPM_P1;HPM_P2
2023/05/09 00:01:44;;;;;;;;;;;;;;;19.80;62.75;97352.88;625532;227;64840;-59
2023/05/09 00:04:11;;;;;;;;;;;;;;;19.79;62.77;97351.27;625487;227;66960;-59
2023/05/09 00:06:39;;;;;;;;;;;;;;;19.80;63.36;97354.74;625553;227;66841;-61
2023/05/09 00:09:06;;;;;;;;;;;;;;;19.80;62.60;97357.41;625156;227;62901;-63
2023/05/09 00:11:34;;;;;;;;;;;;;;;19.80;62.81;97349.41;623357;227;66879;-61
2023/05/09 00:14:02;;;;;;;;;;;;;;;19.79;62.77;97343.27;623348;227;64713;-61
2023/05/09 00:16:31;;;;;;;;;;;;;;;19.78;62.64;97344.34;623337;227;65041;-61
2023/05/09 00:18:59;;;;;;;;;;;;;;;19.78;61.82;97347.02;623334;227;64837;-61
2023/05/09 00:21:27;;;;;;;;;;;;;;;19.78;62.80;97347.02;623381;227;64857;-61
2023/05/09 00:23:54;;;;;;;;;;;;;;;19.79;62.74;97337.14;623327;227;64972;-63
2023/05/09 00:26:22;;;;;;;;;;;;;;;19.78;63.10;97338.19;623299;227;66949;-61
2023/05/09 00:28:50;;;;;;;;;;;;;;;19.78;63.15;97335.52;623333;227;66703;-61
2023/05/09 00:31:18;;;;;;;;;;;;;;;19.78;62.84;97343.52;623358;227;65076;-61
2023/05/09 00:33:45;;;;;;;;;;;;;;;19.77;62.82;97342.72;623365;227;66718;-61
2023/05/09 00:36:12;;;;;;;;;;;;;;;19.78;62.37;97348.84;623345;227;66533;-61
2023/05/09 00:38:40;;;;;;;;;;;;;;;19.77;61.78;97340.05;623324;227;63026;-61
2023/05/09 00:41:08;;;;;;;;;;;;;;;19.77;62.08;97342.72;623319;227;67388;-61
2023/05/09 00:43:35;;;;;;;;;;;;;;;19.78;62.99;97347.02;623296;227;66999;-61
2023/05/09 00:46:03;;;;;;;;;;;;;;;19.77;61.78;97347.25;623385;227;62679;-61
2023/05/09 00:48:30;;;;;;;;;;;;;;;19.77;62.62;97334.72;623338;227;67412;-61
2023/05/09 00:50:58;;;;;;;;;;;;;;;19.78;62.54;97348.84;623302;227;66686;-59
2023/05/09 00:53:26;;;;;;;;;;;;;;;19.77;63.43;97349.92;623341;227;63617;-59
2023/05/09 00:55:54;;;;;;;;;;;;;;;19.76;62.38;97346.45;623332;227;64312;-59
2023/05/09 00:58:22;;;;;;;;;;;;;;;19.76;62.59;97342.98;623377;227;66744;-59
2023/05/09 01:00:50;;;;;;;;;;;;;;;19.77;62.21;97347.25;623349;227;63844;-59
2023/05/09 01:03:17;;;;;;;;;;;;;;;19.76;63.17;97349.13;623313;227;64569;-59
2023/05/09 01:05:52;;;;;;;;;;;;;;;19.76;62.28;97343.78;623326;227;64729;-59
2023/05/09 01:08:30;;;;;;;;;;;;;;;19.76;62.30;97348.32;623307;227;65704;-59
2023/05/09 01:10:59;;;;;;;;;;;;;;;19.75;62.72;97344.83;625068;227;64590;-59
2023/05/09 01:13:28;;;;;;;;;;;;;;;19.75;63.08;97350.16;625546;227;67339;-59
2023/05/09 01:15:57;;;;;;;;;;;;;;;19.76;62.81;97348.32;625373;227;62764;-59
2023/05/09 01:18:27;;;;;;;;;;;;;;;19.74;62.19;97349.36;625474;227;66889;-59
2023/05/09 01:20:59;;;;;;;;;;;;;;;19.74;62.46;97352.03;625494;227;66802;-59
2023/05/09 01:23:46;;;;;;;;;;;;;;;19.74;62.48;97351.23;625482;227;65194;-60
2023/05/09 01:26:15;;;;;;;;;;;;;;;19.76;62.45;97356.32;625394;227;64647;-59
2023/05/09 01:28:56;;;;;;;;;;;;;;;19.74;63.12;97354.69;625392;227;64399;-59
2023/05/09 01:31:25;;;;;;;;;;;;;;;19.74;62.72;97354.69;625498;227;64825;-59
2023/05/09 01:33:54;;;;;;;;;;;;;;;19.74;62.58;97352.03;625502;227;64566;-59
2023/05/09 01:36:22;;;;;;;;;;;;;;;19.73;62.73;97347.77;625521;227;66748;-59
2023/05/09 01:38:51;;;;;;;;;;;;;;;19.72;63.03;97346.17;625479;227;65117;-60
2023/05/09 01:41:21;;;;;;;;;;;;;;;19.74;63.20;97351.23;625523;227;66892;-61
2023/05/09 01:43:50;;;;;;;;;;;;;;;19.73;62.44;97345.09;625558;227;66790;-61
2023/05/09 01:46:20;;;;;;;;;;;;;;;19.73;63.49;97344.30;625522;227;65726;-61
2023/05/09 01:48:49;;;;;;;;;;;;;;;19.74;63.50;97357.36;625529;227;64583;-61
2023/05/09 01:51:18;;;;;;;;;;;;;;;19.73;63.32;97346.97;625529;227;67077;-61
2023/05/09 01:53:48;;;;;;;;;;;;;;;19.73;64.36;97344.30;625505;227;66066;-61
2023/05/09 01:56:16;;;;;;;;;;;;;;;19.73;63.32;97342.44;625558;227;66941;-61
2023/05/09 01:58:47;;;;;;;;;;;;;;;19.71;61.51;97352.54;625474;227;66993;-59
2023/05/09 02:01:14;;;;;;;;;;;;;;;19.72;63.20;97356.83;625518;227;65637;-59
2023/05/09 02:03:42;;;;;;;;;;;;;;;19.73;62.84;97352.30;625497;227;66997;-59
2023/05/09 02:06:10;;;;;;;;;;;;;;;19.72;62.55;97351.50;625527;227;66801;-59
2023/05/09 02:08:38;;;;;;;;;;;;;;;19.72;63.04;97351.50;625561;227;65772;-59
2023/05/09 02:11:06;;;;;;;;;;;;;;;19.71;62.41;97347.20;625495;225;72248;-59
2023/05/09 02:13:34;;;;;;;;;;;;;;;19.72;62.24;97354.17;625515;227;65590;-59
2023/05/09 02:16:01;;;;;;;;;;;;;;;19.71;62.01;97360.54;625507;227;65024;-59
2023/05/09 02:18:31;;;;;;;;;;;;;;;19.72;62.95;97358.67;625486;227;67278;-59
2023/05/09 02:20:58;;;;;;;;;;;;;;;19.72;62.92;97354.17;625541;227;67227;-60
2023/05/09 02:23:26;;;;;;;;;;;;;;;19.72;62.76;97359.50;625528;227;65168;-59
2023/05/09 02:25:54;;;;;;;;;;;;;;;19.72;62.92;97356.83;625496;227;64731;-59
2023/05/09 02:28:23;;;;;;;;;;;;;;;19.71;60.88;97355.20;625536;227;67454;-59
2023/05/09 02:30:51;;;;;;;;;;;;;;;19.71;61.81;97357.08;625471;227;62663;-59
2023/05/09 02:33:19;;;;;;;;;;;;;;;19.71;62.61;97363.20;625517;227;67433;-59
2023/05/09 02:35:47;;;;;;;;;;;;;;;19.70;61.51;97361.61;625562;227;66835;-59
2023/05/09 02:38:15;;;;;;;;;;;;;;;19.71;61.87;97360.54;625541;227;65229;-58
2023/05/09 02:40:43;;;;;;;;;;;;;;;19.71;61.92;97370.41;625560;227;66852;-59
2023/05/09 02:43:10;;;;;;;;;;;;;;;19.71;62.42;97376.54;625546;227;66536;-59
2023/05/09 02:45:39;;;;;;;;;;;;;;;19.71;62.68;97373.08;625498;227;62650;-58
2023/05/09 02:48:06;;;;;;;;;;;;;;;19.70;63.44;97374.94;625557;227;64053;-59
2023/05/09 02:50:34;;;;;;;;;;;;;;;19.69;61.95;97373.31;625547;227;66508;-59
2023/05/09 02:53:01;;;;;;;;;;;;;;;19.69;62.48;97370.64;625527;227;62647;-59
2023/05/09 02:55:29;;;;;;;;;;;;;;;19.70;61.66;97377.61;625550;227;66653;-58
2023/05/09 02:57:57;;;;;;;;;;;;;;;19.70;62.55;97385.61;625508;227;66467;-60
2023/05/09 03:00:26;;;;;;;;;;;;;;;19.70;62.65;97382.14;625591;227;42870;-61
2023/05/09 03:02:54;;;;;;;;;;;;;;;19.69;62.28;97378.64;625568;227;66584;-61
2023/05/09 03:05:22;;;;;;;;;;;;;;;19.70;62.62;97374.14;625525;227;64328;-61
2023/05/09 03:07:50;;;;;;;;;;;;;;;19.69;61.98;97381.31;625515;227;65039;-61
2023/05/09 03:10:18;;;;;;;;;;;;;;;19.69;62.01;97380.52;625407;227;66932;-61
2023/05/09 03:12:46;;;;;;;;;;;;;;;19.68;63.37;97379.72;625501;227;64841;-61
2023/05/09 03:15:14;;;;;;;;;;;;;;;19.68;62.45;97379.72;625548;227;64838;-61
2023/05/09 03:17:41;;;;;;;;;;;;;;;19.69;63.02;97391.18;625515;227;64268;-61
2023/05/09 03:20:09;;;;;;;;;;;;;;;19.69;62.58;97397.31;625507;227;66815;-61
2023/05/09 03:22:37;;;;;;;;;;;;;;;19.67;62.01;97390.62;625515;227;65120;-61
2023/05/09 03:25:06;;;;;;;;;;;;;;;19.70;63.54;97395.47;625469;227;67314;-61
2023/05/09 03:27:34;;;;;;;;;;;;;;;19.68;63.03;97395.72;625540;227;66809;-60
2023/05/09 03:30:02;;;;;;;;;;;;;;;19.69;62.56;97399.17;625553;227;64936;-60
2023/05/09 03:32:29;;;;;;;;;;;;;;;19.67;62.90;97401.28;625501;227;66606;-60
2023/05/09 03:34:57;;;;;;;;;;;;;;;19.67;62.84;97404.78;625524;227;66674;-60
2023/05/09 03:37:25;;;;;;;;;;;;;;;19.68;62.32;97406.38;625439;227;62585;-60
2023/05/09 03:39:52;;;;;;;;;;;;;;;19.68;63.33;97401.05;625579;227;64852;-60
2023/05/09 03:42:21;;;;;;;;;;;;;;;19.67;62.39;97403.95;625518;227;64276;-60
2023/05/09 03:44:49;;;;;;;;;;;;;;;19.67;63.05;97404.78;625493;227;62462;-60
2023/05/09 03:47:17;;;;;;;;;;;;;;;19.67;62.47;97401.28;618667;227;66639;-60
2023/05/09 03:49:45;;;;;;;;;;;;;;;19.66;62.67;97405.81;618696;227;67955;-60
2023/05/09 03:52:14;;;;;;;;;;;;;;;19.67;62.43;97404.78;625476;227;65464;-60
2023/05/09 03:54:42;;;;;;;;;;;;;;;19.66;62.81;97403.16;625558;227;66968;-60
2023/05/09 03:57:10;;;;;;;;;;;;;;;19.66;62.36;97410.35;625491;227;65544;-61
2023/05/09 03:59:38;;;;;;;;;;;;;;;19.66;63.36;97403.16;625480;227;65613;-60
2023/05/09 04:02:06;;;;;;;;;;;;;;;19.66;63.19;97403.16;625457;227;64672;-60
2023/05/09 04:04:34;;;;;;;;;;;;;;;19.66;63.19;97410.35;625463;227;67762;-62
2023/05/09 04:07:02;;;;;;;;;;;;;;;19.65;62.66;97412.19;625512;227;62924;-62
2023/05/09 04:09:30;;;;;;;;;;;;;;;19.66;62.87;97418.35;625429;227;67334;-63
2023/05/09 04:11:57;;;;;;;;;;;;;;;19.66;62.85;97418.35;625457;227;67147;-61
2023/05/09 04:14:25;;;;;;;;;;;;;;;19.65;63.13;97420.19;625479;227;65436;-61
2023/05/09 04:16:53;;;;;;;;;;;;;;;19.65;62.83;97422.86;625430;227;64979;-61
2023/05/09 04:19:20;;;;;;;;;;;;;;;19.65;63.05;97420.19;625523;227;67238;-61
2023/05/09 04:21:48;;;;;;;;;;;;;;;19.65;63.03;97417.52;625481;227;65982;-61
2023/05/09 04:24:15;;;;;;;;;;;;;;;19.66;63.68;97427.15;618676;227;66991;-61
2023/05/09 04:26:45;;;;;;;;;;;;;;;19.66;63.33;97427.15;625460;227;44807;-61
2023/05/09 04:29:14;;;;;;;;;;;;;;;19.65;63.48;97422.86;625465;227;42819;-61
2023/05/09 04:31:43;;;;;;;;;;;;;;;19.66;62.82;97429.02;625454;227;67116;-61
2023/05/09 04:34:11;;;;;;;;;;;;;;;19.67;62.29;97425.28;625537;227;67582;-61
2023/05/09 04:36:39;;;;;;;;;;;;;;;19.67;62.99;97430.62;625476;227;65228;-61
2023/05/09 04:39:07;;;;;;;;;;;;;;;19.67;61.59;97420.78;625467;227;67768;-61
2023/05/09 04:41:35;;;;;;;;;;;;;;;19.67;61.70;97420.78;625471;227;67402;-61
2023/05/09 04:44:03;;;;;;;;;;;;;;;19.68;62.73;97425.05;625468;227;65087;-61
2023/05/09 04:46:30;;;;;;;;;;;;;;;19.69;61.82;97423.98;625526;227;66841;-61
2023/05/09 04:48:58;;;;;;;;;;;;;;;19.69;63.05;97426.64;625475;227;64619;-61
2023/05/09 04:51:26;;;;;;;;;;;;;;;19.70;63.59;97430.94;625449;227;65447;-61
2023/05/09 04:53:53;;;;;;;;;;;;;;;19.70;61.63;97424.80;625447;227;68313;-61
2023/05/09 04:56:23;;;;;;;;;;;;;;;19.71;62.23;97437.07;625480;227;44377;-61
2023/05/09 04:58:51;;;;;;;;;;;;;;;19.72;62.82;97434.16;625475;227;62478;-61
2023/05/09 05:01:19;;;;;;;;;;;;;;;19.72;61.71;97430.67;625448;227;67206;-61
2023/05/09 05:03:47;;;;;;;;;;;;;;;19.72;62.60;97428.83;625452;227;64360;-61
2023/05/09 05:06:14;;;;;;;;;;;;;;;19.74;63.28;97428.56;625478;227;64978;-61
2023/05/09 05:08:42;;;;;;;;;;;;;;;19.74;62.05;97429.36;625504;227;64946;-61
2023/05/09 05:11:10;;;;;;;;;;;;;;;19.76;62.03;97428.32;625488;227;64759;-61
2023/05/09 05:13:37;;;;;;;;;;;;;;;19.76;61.79;97430.99;625506;227;65317;-61
2023/05/09 05:16:05;;;;;;;;;;;;;;;19.76;60.65;97428.32;625482;227;67631;-61
2023/05/09 05:18:33;;;;;;;;;;;;;;;19.77;60.19;97435.25;625491;227;67690;-61
2023/05/09 05:21:01;;;;;;;;;;;;;;;19.78;61.36;97429.68;625514;227;62530;-61
2023/05/09 05:23:29;;;;;;;;;;;;;;;19.79;59.10;97433.15;625513;227;67859;-61
2023/05/09 05:25:56;;;;;;;;;;;;;;;19.80;59.64;97426.75;625519;227;65225;-61
2023/05/09 05:28:24;;;;;;;;;;;;;;;19.82;59.84;97424.64;625482;227;65833;-61
2023/05/09 05:30:52;;;;;;;;;;;;;;;19.82;59.73;97422.77;625511;227;67975;-61
2023/05/09 05:33:20;;;;;;;;;;;;;;;19.83;59.96;97424.37;625538;227;65278;-61
2023/05/09 05:35:48;;;;;;;;;;;;;;;19.84;59.00;97428.66;625481;227;65245;-61
2023/05/09 05:38:16;;;;;;;;;;;;;;;19.85;59.49;97430.27;625532;227;67306;-61
2023/05/09 05:40:45;;;;;;;;;;;;;;;19.86;58.85;97433.73;625469;227;64794;-61
2023/05/09 05:43:12;;;;;;;;;;;;;;;19.87;59.16;97440.69;625524;227;65322;-61
2023/05/09 05:45:40;;;;;;;;;;;;;;;19.88;59.17;97444.95;625461;227;67825;-61
2023/05/09 05:48:08;;;;;;;;;;;;;;;19.88;59.22;97437.75;625493;227;67526;-61
2023/05/09 05:50:36;;;;;;;;;;;;;;;19.89;58.18;97446.59;625533;227;65010;-61
2023/05/09 05:53:04;;;;;;;;;;;;;;;19.91;59.75;97457.78;625474;227;67794;-61
2023/05/09 05:55:31;;;;;;;;;;;;;;;19.91;59.30;97452.45;625496;227;67052;-61
2023/05/09 05:58:00;;;;;;;;;;;;;;;19.91;57.91;97458.58;625422;227;65817;-62
2023/05/09 06:00:27;;;;;;;;;;;;;;;19.93;59.31;97463.68;625516;227;66897;-62
2023/05/09 06:02:56;;;;;;;;;;;;;;;19.92;59.49;97462.87;625464;227;45643;-61
2023/05/09 06:05:28;;;;;;;;;;;;;;;19.93;57.68;97461.02;624589;227;43759;-63
2023/05/09 06:07:56;;;;;;;;;;;;;;;19.96;60.49;97465.84;625456;227;65217;-59
2023/05/09 06:10:23;;;;;;;;;;;;;;;19.95;60.27;97474.91;625388;227;64936;-61
2023/05/09 06:12:53;;;;;;;;;;;;;;;19.94;58.56;97467.95;629118;225;63045;-59
2023/05/09 06:15:20;;;;;;;;;;;;;;;19.94;58.73;97471.44;629752;225;64856;-59
2023/05/09 06:17:49;;;;;;;;;;;;;;;19.96;58.39;97466.63;630090;225;67349;-61
2023/05/09 06:20:16;;;;;;;;;;;;;;;19.99;58.39;97475.20;630063;225;65045;-61
2023/05/09 06:22:44;;;;;;;;;;;;;;;19.98;57.22;97469.06;630115;225;67205;-60
2023/05/09 06:25:11;;;;;;;;;;;;;;;20.01;57.14;97470.42;630011;225;67840;-60
2023/05/09 06:27:39;;;;;;;;;;;;;;;20.02;57.07;97469.35;630105;225;64872;-60
2023/05/09 06:30:07;;;;;;;;;;;;;;;20.03;57.38;97470.98;630135;225;67181;-59
2023/05/09 06:32:34;;;;;;;;;;;;;;;20.03;57.59;97471.78;630012;225;67130;-59
2023/05/09 06:35:02;;;;;;;;;;;;;;;20.06;57.41;97468.60;630064;225;65042;-60
2023/05/09 06:37:31;;;;;;;;;;;;;;;20.06;57.31;97471.27;630071;225;64883;-60
2023/05/09 06:39:58;;;;;;;;;;;;;;;20.09;57.02;97478.77;630046;225;67059;-60
2023/05/09 06:42:28;;;;;;;;;;;;;;;20.10;57.21;97476.89;630119;225;65059;-60
2023/05/09 06:44:56;;;;;;;;;;;;;;;20.12;57.64;97477.45;630080;225;67052;-60
2023/05/09 06:47:23;;;;;;;;;;;;;;;20.13;58.15;97479.88;630048;225;66595;-64
2023/05/09 06:49:51;;;;;;;;;;;;;;;20.15;57.89;97476.95;630111;225;63005;-62
2023/05/09 06:52:20;;;;;;;;;;;;;;;20.16;56.37;97478.55;630112;225;64614;-61
2023/05/09 06:54:47;;;;;;;;;;;;;;;20.17;56.92;97472.16;630120;225;67063;-61
2023/05/09 06:57:15;;;;;;;;;;;;;;;20.18;57.61;97479.90;630121;225;65033;-61
2023/05/09 06:59:43;;;;;;;;;;;;;;;20.18;56.50;97479.90;630057;225;66787;-65
2023/05/09 07:02:11;;;;;;;;;;;;;;;20.21;56.51;97481.26;629854;225;66657;-62
2023/05/09 07:04:38;;;;;;;;;;;;;;;20.23;56.94;97476.48;630031;225;65081;-61
2023/05/09 07:07:07;;;;;;;;;;;;;;;20.25;56.07;97484.25;629815;225;66935;-61
2023/05/09 07:09:37;;;;;;;;;;;;;;;20.26;55.93;97478.64;625216;225;67201;-61
2023/05/09 07:12:04;;;;;;;;;;;;;;;20.27;56.37;97477.59;625446;227;62956;-61
2023/05/09 07:14:32;;;;;;;;;;;;;;;20.30;56.07;97478.95;625435;227;66954;-61
2023/05/09 07:16:59;;;;;;;;;;;;;;;20.32;56.05;97482.15;625308;227;67030;-65
2023/05/09 07:19:27;;;;;;;;;;;;;;;20.33;55.64;97481.91;625372;227;65036;-61
2023/05/09 07:21:54;;;;;;;;;;;;;;;20.35;56.09;97484.30;625297;227;67535;-62
2023/05/09 07:24:22;;;;;;;;;;;;;;;20.38;55.61;97487.29;625393;227;67035;-61
2023/05/09 07:26:49;;;;;;;;;;;;;;;20.40;55.63;97481.67;625370;227;64849;-65
2023/05/09 07:29:18;;;;;;;;;;;;;;;20.40;56.28;97487.02;625311;227;67195;-60
2023/05/09 07:31:46;;;;;;;;;;;;;;;20.42;57.64;97479.56;625398;227;64888;-61
2023/05/09 07:34:14;;;;;;;;;;;;;;;20.44;55.53;97490.80;625454;227;63821;-61
2023/05/09 07:36:42;;;;;;;;;;;;;;;20.45;55.62;97492.40;625440;227;64902;-60
2023/05/09 07:39:09;;;;;;;;;;;;;;;20.46;56.09;97494.03;625341;227;64788;-60
2023/05/09 07:41:37;;;;;;;;;;;;;;;20.48;55.80;97493.75;625438;227;62903;-60
2023/05/09 07:44:05;;;;;;;;;;;;;;;20.49;55.11;97485.50;625338;227;67232;-59
2023/05/09 07:46:32;;;;;;;;;;;;;;;20.51;55.32;97486.03;625452;227;67076;-60
2023/05/09 07:49:00;;;;;;;;;;;;;;;20.53;54.98;97485.78;625482;227;65015;-61
2023/05/09 07:51:27;;;;;;;;;;;;;;;20.54;55.48;97493.59;625329;227;67291;-61
2023/05/09 07:53:55;;;;;;;;;;;;;;;20.55;55.30;97500.52;625385;227;67119;-61
2023/05/09 07:56:22;;;;;;;;;;;;;;;20.57;54.89;97498.41;625416;227;65119;-61
2023/05/09 07:58:50;;;;;;;;;;;;;;;20.58;54.96;97497.34;625399;227;67263;-61
2023/05/09 08:01:17;;;;;;;;;;;;;;;20.59;56.00;97493.59;625455;227;66945;-60
2023/05/09 08:03:45;;;;;;;;;;;;;;;20.63;55.02;97490.44;625380;227;65002;-60
2023/05/09 08:06:12;;;;;;;;;;;;;;;20.64;55.42;97492.03;625312;227;67151;-60
2023/05/09 08:08:40;;;;;;;;;;;;;;;20.64;56.16;97494.70;625390;227;66113;-58
2023/05/09 08:11:07;;;;;;;;;;;;;;;20.66;56.24;97492.59;623285;227;63849;-60
2023/05/09 08:13:35;;;;;;;;;;;;;;;20.68;55.60;97493.95;623263;227;67260;-60
2023/05/09 08:16:04;;;;;;;;;;;;;;;20.69;55.60;97494.74;623251;227;66980;-60
2023/05/09 08:18:32;;;;;;;;;;;;;;;20.70;55.48;97496.34;623293;227;65113;-59
2023/05/09 08:21:00;;;;;;;;;;;;;;;20.72;55.52;97500.37;623172;227;67232;-60
2023/05/09 08:23:29;;;;;;;;;;;;;;;20.74;55.56;97508.14;623228;227;67272;-61
2023/05/09 08:25:57;;;;;;;;;;;;;;;20.76;54.73;97501.48;623257;227;65082;-60
2023/05/09 08:28:27;;;;;;;;;;;;;;;20.78;54.58;97507.34;623259;227;66660;-60
2023/05/09 08:30:55;;;;;;;;;;;;;;;20.81;54.52;97509.50;623270;227;67003;-61
2023/05/09 08:33:24;;;;;;;;;;;;;;;20.82;54.24;97513.80;623151;227;65090;-61
2023/05/09 08:35:53;;;;;;;;;;;;;;;20.84;54.32;97509.01;623272;227;67391;-60
2023/05/09 08:38:20;;;;;;;;;;;;;;;20.88;54.26;97511.16;623248;227;66990;-60
2023/05/09 08:40:48;;;;;;;;;;;;;;;20.89;54.16;97502.88;623274;227;62918;-60
2023/05/09 08:43:22;;;;;;;;;;;;;;;20.90;54.12;97504.50;623226;227;64839;-60
2023/05/09 08:45:50;;;;;;;;;;;;;;;20.92;53.99;97504.23;622931;227;64978;-60
2023/05/09 08:48:18;;;;;;;;;;;;;;;20.93;54.00;97506.66;623197;227;65096;-60
2023/05/09 08:50:45;;;;;;;;;;;;;;;20.96;54.07;97500.78;623268;227;67207;-60
2023/05/09 08:53:13;;;;;;;;;;;;;;;20.97;54.11;97507.73;623278;227;67164;-63
2023/05/09 08:55:40;;;;;;;;;;;;;;;20.99;54.09;97508.28;623210;227;65260;-64
2023/05/09 08:58:08;;;;;;;;;;;;;;;21.02;54.01;97517.66;623230;227;67172;-59
2023/05/09 09:00:41;;;;;;;;;;;;;;;21.04;54.66;97508.31;623101;227;67037;-58
2023/05/09 09:03:06;;;;;;;;;;;;;;;21.05;54.63;97509.11;622916;227;65088;-59
2023/05/09 09:05:35;;;;;;;;;;;;;;;21.06;54.46;97510.71;623165;227;67043;-61
2023/05/09 09:08:04;;;;;;;;;;;;;;;21.08;54.21;97508.59;623227;227;67724;-59
2023/05/09 09:10:32;;;;;;;;;;;;;;;21.11;54.33;97510.74;624689;227;62933;-60
2023/05/09 09:13:02;;;;;;;;;;;;;;;21.12;54.61;97508.90;625360;227;64921;-59
2023/05/09 09:15:30;;;;;;;;;;;;;;;21.16;54.36;97507.30;625443;227;66952;-59
2023/05/09 09:17:59;;;;;;;;;;;;;;;21.17;54.51;97512.40;625354;227;62060;-59
2023/05/09 09:20:28;;;;;;;;;;;;;;;21.21;54.47;97516.15;625456;227;67229;-58
2023/05/09 09:22:57;;;;;;;;;;;;;;;21.22;54.60;97514.27;618549;227;68546;-59
2023/05/09 09:25:25;;;;;;;;;;;;;;;21.24;54.63;97514.83;625301;227;65185;-59
2023/05/09 09:27:52;;;;;;;;;;;;;;;21.27;54.63;97516.97;625392;227;67294;-59
2023/05/09 09:30:21;;;;;;;;;;;;;;;21.29;54.71;97518.33;627712;224;64848;-59
2023/05/09 09:32:48;;;;;;;;;;;;;;;21.30;54.48;97516.45;625477;224;63098;-59
2023/05/09 09:35:16;;;;;;;;;;;;;;;21.34;54.36;97522.10;621963;228;65069;-59
2023/05/09 09:37:44;;;;;;;;;;;;;;;21.35;54.44;97516.48;621941;228;64973;-59
2023/05/09 09:40:13;;;;;;;;;;;;;;;21.38;54.50;97525.88;625916;224;62897;-59
2023/05/09 09:42:50;;;;;;;;;;;;;;;21.39;54.35;97514.94;628116;224;51448;-58
2023/05/09 09:45:19;;;;;;;;;;;;;;;21.42;54.34;97516.28;629823;225;66852;-60
2023/05/09 09:47:47;;;;;;;;;;;;;;;21.44;54.37;97516.80;629983;225;62637;-61
2023/05/09 09:50:16;;;;;;;;;;;;;;;21.45;54.29;97516.56;629098;224;67638;-59
2023/05/09 09:52:45;;;;;;;;;;;;;;;21.48;54.32;97515.23;627355;224;67159;-59
2023/05/09 09:55:13;;;;;;;;;;;;;;;21.50;54.18;97516.58;625346;227;65032;-58
2023/05/09 09:57:43;;;;;;;;;;;;;;;21.52;54.36;97518.17;625370;227;67243;-58
2023/05/09 10:00:10;;;;;;;;;;;;;;;21.54;54.15;97521.40;625322;227;65036;-58
2023/05/09 10:02:48;;;;;;;;;;;;;;;21.55;54.29;97512.30;625402;227;62959;-58
2023/05/09 10:05:20;;;;;;;;;;;;;;;21.56;54.23;97520.08;624956;227;67235;-59
2023/05/09 10:07:52;;;;;;;;;;;;;;;21.58;54.25;97517.13;625328;227;68276;-58
2023/05/09 10:10:19;;;;;;;;;;;;;;;21.61;54.29;97516.63;625342;227;65145;-58
2023/05/09 10:12:48;;;;;;;;;;;;;;;21.62;54.15;97521.70;625341;227;67339;-59
2023/05/09 10:15:21;;;;;;;;;;;;;;;21.64;54.19;97521.45;625458;227;67014;-59
2023/05/09 10:17:46;;;;;;;;;;;;;;;21.65;54.17;97520.37;625194;227;65016;-58
2023/05/09 10:20:14;;;;;;;;;;;;;;;21.66;54.33;97524.64;625387;227;67127;-58
2023/05/09 10:22:41;;;;;;;;;;;;;;;21.68;54.39;97522.52;625366;227;64797;-59
2023/05/09 10:25:12;;;;;;;;;;;;;;;21.68;54.06;97522.52;625377;227;64968;-59
2023/05/09 10:27:41;;;;;;;;;;;;;;;21.70;54.18;97520.38;625301;227;67394;-59
2023/05/09 10:30:10;;;;;;;;;;;;;;;21.72;53.85;97523.61;625941;225;64728;-58
2023/05/09 10:32:51;;;;;;;;;;;;;;;21.73;54.10;97525.20;627748;224;65098;-58
2023/05/09 10:35:18;;;;;;;;;;;;;;;21.74;54.53;97526.80;625279;227;67168;-58
2023/05/09 10:37:46;;;;;;;;;;;;;;;21.77;54.24;97525.48;625378;227;68056;-60
2023/05/09 10:40:14;;;;;;;;;;;;;;;21.77;54.21;97531.66;625369;227;64959;-60
2023/05/09 10:42:42;;;;;;;;;;;;;;;21.78;53.90;97530.58;625316;227;67213;-59
2023/05/09 10:45:11;;;;;;;;;;;;;;;21.79;53.77;97524.14;624824;227;67010;-59
2023/05/09 10:47:39;;;;;;;;;;;;;;;21.80;54.52;97531.13;625316;227;65061;-59
2023/05/09 10:50:08;;;;;;;;;;;;;;;21.81;54.20;97524.70;624764;227;64941;-60
2023/05/09 10:52:38;;;;;;;;;;;;;;;21.83;53.60;97530.59;625437;227;66875;-58
2023/05/09 10:55:06;;;;;;;;;;;;;;;21.85;53.67;97527.64;619865;227;65083;-59
2023/05/09 10:57:35;;;;;;;;;;;;;;;21.85;54.35;97524.96;625405;227;66701;-59
2023/05/09 11:00:02;;;;;;;;;;;;;;;21.86;53.99;97535.41;625356;227;66711;-59
2023/05/09 11:02:31;;;;;;;;;;;;;;;21.88;55.04;97529.78;625373;227;65195;-59
2023/05/09 11:05:03;;;;;;;;;;;;;;;21.89;53.90;97528.73;625399;227;65011;-59
2023/05/09 11:07:31;;;;;;;;;;;;;;;21.89;54.15;97529.53;623742;227;66753;-59
2023/05/09 11:10:23;;;;;;;;;;;;;;;21.91;53.60;97531.95;624331;227;65156;-58
2023/05/09 11:13:03;;;;;;;;;;;;;;;21.92;53.82;97534.35;623269;227;64631;-59
2023/05/09 11:15:49;;;;;;;;;;;;;;;21.93;53.98;97537.83;623221;227;64720;-59
2023/05/09 11:18:17;;;;;;;;;;;;;;;21.94;54.16;97536.78;621858;227;63664;-59
2023/05/09 11:20:45;;;;;;;;;;;;;;;21.94;54.26;97534.90;623227;227;64898;-59
2023/05/09 11:23:16;;;;;;;;;;;;;;;21.94;53.61;97537.58;624578;225;67113;-59
2023/05/09 11:25:45;;;;;;;;;;;;;;;21.97;54.06;97535.45;624766;225;64055;-58
2023/05/09 11:28:14;;;;;;;;;;;;;;;21.97;54.08;97536.25;624461;225;64975;-59
2023/05/09 11:30:42;;;;;;;;;;;;;;;21.99;54.83;97527.94;624072;225;64919;-59
2023/05/09 11:33:17;;;;;;;;;;;;;;;21.99;53.44;97541.31;623771;227;65069;-58
2023/05/09 11:35:45;;;;;;;;;;;;;;;22.00;54.13;97529.56;621314;225;67219;-59
2023/05/09 11:38:14;;;;;;;;;;;;;;;22.00;54.04;97530.36;626605;225;66993;-58
2023/05/09 11:40:41;;;;;;;;;;;;;;;22.01;54.36;97531.95;630242;225;65215;-59
2023/05/09 11:43:09;;;;;;;;;;;;;;;22.01;54.72;97537.31;630403;225;67212;-59
2023/05/09 11:45:36;;;;;;;;;;;;;;;22.02;53.81;97538.14;630422;225;66650;-58
2023/05/09 11:48:05;;;;;;;;;;;;;;;22.03;54.15;97545.88;630457;225;65122;-59
2023/05/09 11:50:33;;;;;;;;;;;;;;;22.03;53.69;97545.88;630408;225;67260;-59
2023/05/09 11:53:00;;;;;;;;;;;;;;;22.04;54.11;97541.33;630398;225;67469;-59
2023/05/09 11:55:31;;;;;;;;;;;;;;;22.05;54.24;97540.28;630349;225;65164;-58
2023/05/09 11:57:59;;;;;;;;;;;;;;;22.05;54.85;97537.60;630472;225;64956;-59
2023/05/09 12:00:28;;;;;;;;;;;;;;;22.05;54.06;97530.38;630371;225;67068;-59
2023/05/09 12:02:56;;;;;;;;;;;;;;;22.07;53.42;97533.59;630471;225;65048;-59
2023/05/09 12:05:23;;;;;;;;;;;;;;;22.07;53.03;97535.44;630422;225;64858;-59
2023/05/09 12:07:51;;;;;;;;;;;;;;;22.08;53.32;97534.39;630438;225;67117;-59
2023/05/09 12:10:26;;;;;;;;;;;;;;;22.09;53.07;97528.76;630587;224;65248;-58
2023/05/09 12:13:06;;;;;;;;;;;;;;;22.10;54.66;97535.73;630501;225;65344;-58
2023/05/09 12:15:37;;;;;;;;;;;;;;;22.10;53.63;97530.38;630317;225;65810;-58
2023/05/09 12:18:05;;;;;;;;;;;;;;;22.10;54.35;97524.23;630443;225;63831;-59
2023/05/09 12:20:45;;;;;;;;;;;;;;;22.10;54.19;97526.91;630303;224;65203;-58
2023/05/09 12:23:13;;;;;;;;;;;;;;;22.11;54.37;97521.27;630457;225;66966;-59
2023/05/09 12:25:54;;;;;;;;;;;;;;;22.11;54.33;97520.48;630434;225;64944;-58
2023/05/09 12:28:22;;;;;;;;;;;;;;;22.11;53.41;97521.27;630436;225;67237;-59
2023/05/09 12:30:50;;;;;;;;;;;;;;;22.12;54.41;97520.19;630453;225;67079;-58
2023/05/09 12:33:18;;;;;;;;;;;;;;;22.13;53.92;97519.14;630423;225;65004;-58
2023/05/09 12:35:46;;;;;;;;;;;;;;;22.14;53.02;97515.39;630477;225;67356;-58
2023/05/09 12:38:15;;;;;;;;;;;;;;;22.15;53.59;97510.83;630391;225;64885;-59
2023/05/09 12:40:44;;;;;;;;;;;;;;;22.15;53.61;97511.66;630490;225;63133;-58
2023/05/09 12:43:12;;;;;;;;;;;;;;;22.21;52.03;97506.31;630262;224;64929;-58
2023/05/09 12:45:41;;;;;;;;;;;;;;;22.22;52.28;97503.38;630472;225;67014;-58
2023/05/09 12:48:10;;;;;;;;;;;;;;;22.23;53.24;97501.50;630463;225;62894;-59
2023/05/09 12:50:38;;;;;;;;;;;;;;;22.23;54.18;97499.63;630366;225;67250;-59
2023/05/09 12:53:05;;;;;;;;;;;;;;;22.26;53.53;97504.47;630502;225;67011;-58
2023/05/09 12:55:34;;;;;;;;;;;;;;;22.29;53.55;97500.42;630479;225;65142;-58